createdAt,value
2022-10-20T00:04:29.698Z,2.65
2022-10-20T00:09:32.509Z,3.45
2022-10-20T00:14:35.345Z,7.00
2022-10-20T00:19:39.440Z,4.10
2022-10-20T00:24:42.341Z,3.80
2022-10-20T00:29:45.069Z,3.83
2022-10-20T00:34:49.181Z,4.80
2022-10-20T00:39:51.981Z,3.17
2022-10-20T00:44:57.370Z,4.15
2022-10-20T00:50:07.002Z,4.30
2022-10-20T00:55:11.611Z,4.82
2022-10-20T01:00:15.820Z,3.47
2022-10-20T01:05:20.718Z,3.88
2022-10-20T01:10:27.857Z,3.75
2022-10-20T01:15:38.488Z,5.40
2022-10-20T01:21:05.305Z,4.38
2022-10-20T01:26:31.537Z,3.90
2022-10-20T01:31:43.403Z,3.63
2022-10-20T01:36:52.266Z,2.80
2022-10-20T01:41:59.482Z,4.53
2022-10-20T01:47:04.863Z,4.43
2022-10-20T01:52:07.612Z,5.35
2022-10-20T01:57:26.873Z,3.72
2022-10-20T02:02:45.136Z,3.90
2022-10-20T02:07:47.891Z,3.75
2022-10-20T02:12:54.940Z,4.60
2022-10-20T02:18:06.754Z,3.70
2022-10-20T02:23:10.417Z,5.32
2022-10-20T02:28:16.328Z,3.10
2022-10-20T02:33:21.858Z,4.03
2022-10-20T02:38:24.846Z,3.33
2022-10-20T02:43:27.617Z,3.88
2022-10-20T02:48:31.779Z,5.28
2022-10-20T02:53:34.552Z,3.58
2022-10-20T02:58:37.337Z,5.10
2022-10-20T03:03:41.482Z,4.97
2022-10-20T03:08:45.510Z,4.97
2022-10-20T03:13:48.361Z,4.15
2022-10-20T03:18:52.688Z,5.55
2022-10-20T03:23:55.972Z,6.78
2022-10-20T03:28:58.857Z,4.55
2022-10-20T03:34:03.065Z,5.13
2022-10-20T03:39:05.873Z,4.28
2022-10-20T03:44:08.893Z,5.10
2022-10-20T03:49:13.206Z,5.15
2022-10-20T03:54:16.009Z,7.72
2022-10-20T03:59:18.887Z,4.50
2022-10-20T04:04:23.209Z,6.72
2022-10-20T04:09:26.113Z,6.30
2022-10-20T04:14:29.282Z,6.25
2022-10-20T04:19:33.479Z,4.72
2022-10-20T04:24:36.373Z,3.88
2022-10-20T04:29:39.329Z,9.18
2022-10-20T04:34:43.469Z,5.93
2022-10-20T04:39:46.235Z,5.22
2022-10-20T04:44:49.020Z,5.75
2022-10-20T04:49:53.131Z,7.10
2022-10-20T04:54:55.920Z,6.18
2022-10-20T04:59:58.734Z,6.63
2022-10-20T05:05:02.835Z,6.82
2022-10-20T05:10:07.195Z,7.55
2022-10-20T05:15:10.540Z,7.57
2022-10-20T05:20:14.956Z,8.32
2022-10-20T05:25:35.625Z,8.82
2022-10-20T05:30:39.537Z,9.10
2022-10-20T05:35:43.828Z,10.07
2022-10-20T05:40:46.631Z,7.20
2022-10-20T05:45:54.945Z,8.43
2022-10-20T05:51:10.681Z,11.43
2022-10-20T05:56:18.975Z,11.40
2022-10-20T06:01:24.859Z,6.80
2022-10-20T06:06:31.092Z,6.43
2022-10-20T06:11:37.109Z,7.25
2022-10-20T06:16:41.982Z,10.75
2022-10-20T06:21:47.433Z,7.20
2022-10-20T06:26:52.266Z,9.50
2022-10-20T06:31:56.166Z,10.73
2022-10-20T06:37:00.301Z,10.88
2022-10-20T06:42:09.539Z,10.98
2022-10-20T06:47:20.910Z,8.30
2022-10-20T06:52:25.079Z,10.77
2022-10-20T06:57:27.795Z,7.22
2022-10-20T07:02:30.551Z,6.32
2022-10-20T07:12:42.624Z,7.32
2022-10-20T07:17:45.648Z,7.50
2022-10-20T07:22:49.960Z,7.03
2022-10-20T07:27:52.727Z,9.88
2022-10-20T07:32:55.550Z,5.07
2022-10-20T07:37:59.818Z,6.93
2022-10-20T07:43:02.572Z,5.80
2022-10-20T07:48:07.074Z,6.95
2022-10-20T07:53:11.375Z,5.13
2022-10-20T07:58:14.135Z,8.50
2022-10-20T08:03:16.926Z,9.82
2022-10-20T08:08:21.111Z,5.50
2022-10-20T08:13:23.862Z,5.13
2022-10-20T08:18:27.888Z,6.15
2022-10-20T08:23:32.250Z,6.28
2022-10-20T08:28:35.268Z,4.75
2022-10-20T08:33:39.824Z,6.03
2022-10-20T08:38:44.694Z,8.23
2022-10-20T08:43:49.756Z,6.28
2022-10-20T08:48:52.850Z,5.60
2022-10-20T08:53:59.819Z,7.00
2022-10-20T08:59:04.306Z,5.90
2022-10-20T09:04:16.885Z,5.20
2022-10-20T09:09:23.480Z,4.78
2022-10-20T09:14:35.022Z,5.28
2022-10-20T09:19:37.802Z,8.48
2022-10-20T09:24:43.799Z,6.50
2022-10-20T09:29:47.036Z,5.43
2022-10-20T09:34:49.831Z,6.22
2022-10-20T09:39:57.188Z,8.18
2022-10-20T09:45:03.509Z,5.63
2022-10-20T09:50:09.435Z,5.40
2022-10-20T09:55:26.385Z,6.13
2022-10-20T10:00:37.355Z,5.15
2022-10-20T10:05:40.842Z,8.52
2022-10-20T10:10:47.231Z,9.23
2022-10-20T10:16:01.895Z,5.75
2022-10-20T10:21:07.846Z,7.25
2022-10-20T10:26:41.846Z,8.52
2022-10-20T10:31:52.284Z,5.53
2022-10-20T10:36:55.242Z,5.38
2022-10-20T10:42:18.680Z,8.88
2022-10-20T10:47:34.266Z,6.22
2022-10-20T10:52:52.155Z,5.47
2022-10-20T10:58:08.342Z,5.20
2022-10-20T11:03:30.891Z,13.68
2022-10-20T11:08:44.907Z,6.03
2022-10-20T11:13:56.820Z,8.25
2022-10-20T11:19:20.473Z,6.72
2022-10-20T11:24:38.243Z,5.10
2022-10-20T11:29:46.485Z,5.87
2022-10-20T11:34:57.901Z,4.65
2022-10-20T11:40:14.708Z,6.80
2022-10-20T11:45:33.434Z,5.40
2022-10-20T11:55:52.163Z,6.13
2022-10-20T12:01:09.257Z,7.15
2022-10-20T12:06:49.596Z,5.57
2022-10-20T12:11:57.382Z,8.15
2022-10-20T12:17:16.252Z,6.72
2022-10-20T12:22:39.329Z,9.32
2022-10-20T12:27:42.474Z,6.00
2022-10-20T12:33:17.540Z,9.43
2022-10-20T12:38:23.374Z,11.07
2022-10-20T12:43:36.483Z,6.80
2022-10-20T12:48:47.020Z,6.30
2022-10-20T12:53:57.640Z,7.82
2022-10-20T12:59:38.132Z,6.03
2022-10-20T13:04:56.387Z,6.75
2022-10-20T13:10:01.834Z,8.45
2022-10-20T13:15:14.489Z,6.80
2022-10-20T13:20:28.939Z,8.57
2022-10-20T13:25:39.110Z,5.32
2022-10-20T13:30:59.451Z,6.00
2022-10-20T13:36:11.473Z,9.43
2022-10-20T13:41:21.038Z,7.28
2022-10-20T13:46:39.175Z,6.43
2022-10-20T13:51:48.119Z,4.70
2022-10-20T13:56:51.870Z,4.82
2022-10-20T14:01:57.127Z,5.38
2022-10-20T14:07:05.767Z,5.28
2022-10-20T14:12:13.878Z,6.53
2022-10-20T14:17:22.042Z,5.45
2022-10-20T14:22:26.381Z,5.68
2022-10-20T14:27:31.265Z,4.57
2022-10-20T14:32:41.181Z,4.85
2022-10-20T14:37:52.692Z,5.68
2022-10-20T14:43:00.022Z,6.53
2022-10-20T14:48:03.246Z,6.82
2022-10-20T14:53:30.883Z,7.47
2022-10-20T14:58:37.075Z,6.18
2022-10-20T15:03:39.937Z,7.38
2022-10-20T15:08:53.610Z,6.60
2022-10-20T15:13:59.030Z,6.82
2022-10-20T15:19:28.356Z,6.85
2022-10-20T15:24:32.572Z,8.10
2022-10-20T15:29:35.515Z,8.80
2022-10-20T15:34:39.196Z,7.07
2022-10-20T15:39:44.639Z,7.57
2022-10-20T15:44:47.480Z,10.05
2022-10-20T15:49:52.443Z,6.70
2022-10-20T15:54:56.696Z,7.32
2022-10-20T15:59:59.636Z,8.35
2022-10-20T16:05:02.573Z,9.27
2022-10-20T16:10:08.576Z,8.63
2022-10-20T16:15:12.763Z,9.90
2022-10-20T16:20:16.675Z,8.27
2022-10-20T16:25:21.300Z,11.98
2022-10-20T16:30:31.610Z,10.50
2022-10-20T16:36:04.083Z,9.63
2022-10-20T16:41:11.109Z,9.77
2022-10-20T16:46:16.773Z,9.05
2022-10-20T16:51:24.497Z,11.15
2022-10-20T16:56:53.796Z,8.63
2022-10-20T17:01:58.100Z,10.60
2022-10-20T17:07:01.050Z,8.85
2022-10-20T17:12:06.417Z,9.88
2022-10-20T17:17:09.623Z,9.23
2022-10-20T17:22:12.671Z,9.65
2022-10-20T17:27:17.059Z,8.55
2022-10-20T17:32:25.891Z,12.00
2022-10-20T17:38:23.594Z,8.15
2022-10-20T17:56:31.746Z,10.00
2022-10-20T18:02:01.552Z,8.38
2022-10-20T18:07:04.510Z,9.30
2022-10-20T18:12:09.403Z,9.68
2022-10-20T18:17:12.502Z,10.55
2022-10-20T18:22:15.767Z,9.48
2022-10-20T18:27:20.235Z,10.73
2022-10-20T18:32:23.358Z,9.82
2022-10-20T18:37:26.561Z,8.77
2022-10-20T18:42:31.317Z,9.77
2022-10-20T18:47:34.870Z,10.30
2022-10-20T18:52:38.036Z,9.32
2022-10-20T18:57:42.396Z,10.05
2022-10-20T19:02:48.274Z,10.65
2022-10-20T19:07:54.107Z,11.48
2022-10-20T19:12:58.464Z,10.65
2022-10-20T19:18:01.853Z,14.90
2022-10-20T19:23:05.050Z,10.68
2022-10-20T19:28:12.625Z,9.73
2022-10-20T19:33:15.888Z,11.07
2022-10-20T19:38:19.540Z,13.20
2022-10-20T19:43:24.770Z,17.17
2022-10-20T19:48:30.697Z,13.75
2022-10-20T19:54:12.390Z,14.80
2022-10-20T19:59:17.680Z,14.80
2022-10-20T20:04:21.065Z,15.40
2022-10-20T20:09:24.011Z,19.95
2022-10-20T20:14:28.170Z,15.27
2022-10-20T20:19:31.077Z,14.30
2022-10-20T20:24:34.655Z,22.27
2022-10-20T20:29:39.092Z,13.07
2022-10-20T20:34:41.884Z,22.05
2022-10-20T20:39:44.780Z,16.50
2022-10-20T20:44:48.976Z,16.58
2022-10-20T20:49:51.804Z,13.18
2022-10-20T20:54:54.690Z,17.65
2022-10-20T20:59:58.850Z,17.90
2022-10-20T21:05:01.744Z,15.82
2022-10-20T21:10:04.924Z,16.23
2022-10-20T21:15:10.148Z,14.27
2022-10-20T21:20:12.950Z,15.20
2022-10-20T21:25:15.879Z,14.27
2022-10-20T21:30:20.130Z,14.57
2022-10-20T21:35:23.014Z,18.10
2022-10-20T21:40:25.786Z,13.48
2022-10-20T21:45:29.947Z,13.45
2022-10-20T21:50:36.318Z,15.98
2022-10-20T21:55:39.133Z,14.27
2022-10-20T22:00:43.519Z,17.33
2022-10-20T22:05:46.479Z,18.40
2022-10-20T22:10:49.203Z,17.08
2022-10-20T22:15:53.291Z,15.68
2022-10-20T22:20:56.053Z,15.88
2022-10-20T22:25:58.993Z,18.90
2022-10-20T22:31:04.935Z,18.30
2022-10-20T22:36:08.069Z,15.88
2022-10-20T22:41:11.618Z,18.42
2022-10-20T22:46:16.791Z,18.02
2022-10-20T22:51:19.627Z,18.10
2022-10-20T22:56:23.512Z,18.95
2022-10-20T23:01:29.785Z,19.75
2022-10-20T23:06:32.657Z,20.63
2022-10-20T23:11:36.496Z,19.35
2022-10-20T23:16:40.725Z,18.27
2022-10-20T23:21:43.673Z,22.05
2022-10-20T23:26:46.599Z,17.10
2022-10-20T23:31:50.819Z,20.70
2022-10-20T23:36:53.844Z,19.33
2022-10-20T23:41:56.957Z,19.13
2022-10-20T23:47:01.200Z,17.50
2022-10-20T23:52:04.137Z,19.88
2022-10-20T23:57:07.043Z,18.92
